Time;durP1;ratioP1;P1;durP2;ratioP2;P2;SDS_P1;SDS_P2;PMS_P1;PMS_P2;Temp;Humidity;BMP_temperature;BMP_pressure;BME280_temperature;BME280_humidity;BME280_pressure;Samples;Min_cycle;Max_cycle;Signal;HPM_P1;HPM_P2
2021/12/28 00:02:13;;;;;;;51.30;26.63;;;;;;;;;;5094712;28;20074;-68
2021/12/28 00:04:39;;;;;;;60.15;28.45;;;;;;;;;;5095934;28;20032;-70
2021/12/28 00:07:05;;;;;;;53.35;27.17;;;;;;;;;;5094580;28;20526;-70
2021/12/28 00:09:31;;;;;;;56.10;27.45;;;;;;;;;;5095564;28;20828;-70
2021/12/28 00:11:57;;;;;;;61.95;31.67;;;;;;;;;;5095538;28;20127;-70
2021/12/28 00:14:33;;;;;;;55.40;28.67;;;;;;;;;;5094341;28;20028;-70
2021/12/28 00:19:52;;;;;;;75.00;32.65;;;;;;;;;;5079053;28;20078;-70
2021/12/28 00:22:18;;;;;;;56.70;27.92;;;;;;;;;;5095930;28;20095;-70
2021/12/28 00:24:47;;;;;;;62.50;28.63;;;;;;;;;;5094223;28;20035;-70
2021/12/28 00:27:13;;;;;;;66.15;31.80;;;;;;;;;;5095576;28;20053;-69
2021/12/28 00:29:41;;;;;;;67.47;31.55;;;;;;;;;;5095781;28;20028;-70
2021/12/28 00:32:08;;;;;;;69.90;32.97;;;;;;;;;;5095194;28;20477;-70
2021/12/28 00:34:34;;;;;;;55.78;28.25;;;;;;;;;;5094052;28;20165;-70
2021/12/28 00:37:01;;;;;;;52.20;27.38;;;;;;;;;;5095288;28;20046;-69
2021/12/28 00:39:27;;;;;;;57.63;28.23;;;;;;;;;;5095052;28;20095;-70
2021/12/28 00:41:55;;;;;;;53.15;26.88;;;;;;;;;;5095571;28;20118;-70
2021/12/28 00:44:22;;;;;;;64.53;32.33;;;;;;;;;;5093865;28;20024;-70
2021/12/28 00:46:48;;;;;;;63.58;32.83;;;;;;;;;;5095508;28;20115;-68
2021/12/28 00:49:14;;;;;;;66.70;34.20;;;;;;;;;;5094819;28;20028;-69
2021/12/28 00:51:40;;;;;;;65.30;33.30;;;;;;;;;;5093850;28;20024;-68
2021/12/28 00:54:07;;;;;;;53.20;27.35;;;;;;;;;;5093721;28;20107;-69
2021/12/28 00:56:33;;;;;;;75.80;32.00;;;;;;;;;;5094866;28;20047;-68
2021/12/28 00:58:59;;;;;;;72.22;33.30;;;;;;;;;;5094981;28;20038;-68
2021/12/28 01:01:25;;;;;;;58.72;29.40;;;;;;;;;;5094832;28;20051;-67
2021/12/28 01:03:52;;;;;;;56.50;27.63;;;;;;;;;;5094503;28;20379;-68
2021/12/28 01:06:18;;;;;;;49.60;25.60;;;;;;;;;;5094505;28;20028;-67
2021/12/28 01:08:44;;;;;;;54.47;27.40;;;;;;;;;;5093384;28;20089;-68
2021/12/28 01:11:10;;;;;;;56.67;30.15;;;;;;;;;;5094692;28;20131;-68
2021/12/28 01:13:37;;;;;;;53.67;26.60;;;;;;;;;;5093344;28;20372;-68
2021/12/28 01:16:03;;;;;;;46.72;25.02;;;;;;;;;;5094514;28;20028;-68
2021/12/28 01:18:29;;;;;;;50.22;24.30;;;;;;;;;;5094498;28;20039;-68
2021/12/28 01:20:56;;;;;;;40.63;22.75;;;;;;;;;;5093185;28;20032;-67
2021/12/28 01:23:22;;;;;;;43.42;23.23;;;;;;;;;;5094450;28;20077;-67
2021/12/28 01:25:52;;;;;;;47.05;23.10;;;;;;;;;;5093109;28;20119;-69
2021/12/28 01:28:19;;;;;;;56.22;25.90;;;;;;;;;;5093035;28;20024;-67
2021/12/28 01:30:45;;;;;;;49.58;25.55;;;;;;;;;;5094364;28;20488;-67
2021/12/28 01:33:12;;;;;;;46.03;24.85;;;;;;;;;;5092956;28;20107;-68
2021/12/28 01:35:39;;;;;;;49.85;26.20;;;;;;;;;;5094014;28;20392;-68
2021/12/28 01:38:05;;;;;;;52.08;25.77;;;;;;;;;;5094096;28;20028;-69
2021/12/28 01:40:35;;;;;;;53.50;28.48;;;;;;;;;;5094108;28;20368;-68
2021/12/28 01:43:01;;;;;;;73.80;33.08;;;;;;;;;;5093740;28;20492;-69
2021/12/28 01:45:33;;;;;;;65.38;30.90;;;;;;;;;;5093937;28;20039;-70
2021/12/28 01:48:00;;;;;;;78.22;33.67;;;;;;;;;;5094048;28;20050;-68
2021/12/28 01:50:26;;;;;;;68.15;32.53;;;;;;;;;;5092497;28;20135;-69
2021/12/28 01:52:53;;;;;;;67.90;32.00;;;;;;;;;;5093185;28;20058;-68
2021/12/28 01:55:19;;;;;;;62.42;30.35;;;;;;;;;;5093803;28;20136;-67
2021/12/28 01:57:45;;;;;;;77.13;36.35;;;;;;;;;;5092482;28;20492;-68
2021/12/28 02:00:12;;;;;;;73.82;32.85;;;;;;;;;;5093773;28;20054;-69
2021/12/28 02:02:38;;;;;;;98.38;39.95;;;;;;;;;;5092437;28;20051;-69
2021/12/28 02:05:05;;;;;;;92.80;39.75;;;;;;;;;;5093705;28;20039;-69
2021/12/28 02:07:31;;;;;;;122.15;47.17;;;;;;;;;;5093639;28;20482;-68
2021/12/28 02:09:57;;;;;;;109.00;44.28;;;;;;;;;;5092007;28;20028;-69
2021/12/28 02:12:24;;;;;;;104.35;41.05;;;;;;;;;;5093550;28;20057;-68
2021/12/28 02:14:50;;;;;;;111.45;44.22;;;;;;;;;;5092158;28;20097;-69
2021/12/28 02:17:16;;;;;;;91.03;39.47;;;;;;;;;;5093518;28;20032;-69
2021/12/28 02:19:43;;;;;;;59.10;29.30;;;;;;;;;;5092100;28;20024;-69
2021/12/28 02:22:09;;;;;;;60.60;30.38;;;;;;;;;;5093155;28;20483;-69
2021/12/28 02:24:35;;;;;;;65.50;31.85;;;;;;;;;;5092090;28;20114;-68
2021/12/28 02:27:02;;;;;;;62.70;32.50;;;;;;;;;;5093360;28;20036;-70
2021/12/28 02:29:28;;;;;;;64.93;31.52;;;;;;;;;;5093606;28;20063;-69
2021/12/28 02:31:55;;;;;;;77.25;36.70;;;;;;;;;;5093307;28;20102;-71
2021/12/28 02:34:26;;;;;;;80.60;35.90;;;;;;;;;;5093265;28;20028;-73
2021/12/28 02:36:52;;;;;;;84.10;36.70;;;;;;;;;;5091968;28;20064;-71
2021/12/28 02:39:19;;;;;;;76.88;33.28;;;;;;;;;;5091813;28;20066;-71
2021/12/28 02:41:45;;;;;;;75.63;36.22;;;;;;;;;;5091891;28;20527;-66
2021/12/28 02:44:11;;;;;;;82.63;36.33;;;;;;;;;;5091810;28;20023;-69
2021/12/28 02:46:38;;;;;;;65.88;32.90;;;;;;;;;;5093420;28;20115;-70
2021/12/28 02:49:04;;;;;;;62.70;30.85;;;;;;;;;;5093059;28;20047;-70
2021/12/28 02:51:30;;;;;;;59.67;30.80;;;;;;;;;;5091592;28;20044;-69
2021/12/28 02:53:57;;;;;;;62.63;28.05;;;;;;;;;;5091769;28;20457;-69
2021/12/28 02:56:23;;;;;;;56.83;28.23;;;;;;;;;;5092983;28;20031;-69
2021/12/28 02:58:57;;;;;;;58.92;28.75;;;;;;;;;;5092982;28;20583;-69
2021/12/28 03:01:25;;;;;;;55.60;28.67;;;;;;;;;;5092728;28;20028;-69
2021/12/28 03:03:53;;;;;;;64.30;29.80;;;;;;;;;;5095961;28;20464;-67
2021/12/28 03:06:20;;;;;;;64.28;29.23;;;;;;;;;;5095801;28;20032;-68
2021/12/28 03:08:51;;;;;;;61.22;31.48;;;;;;;;;;5095672;28;20024;-67
2021/12/28 03:11:17;;;;;;;61.28;30.48;;;;;;;;;;5097112;28;20024;-67
2021/12/28 03:13:48;;;;;;;64.40;30.55;;;;;;;;;;5096976;28;20020;-67
2021/12/28 03:16:15;;;;;;;64.07;32.67;;;;;;;;;;5095595;28;20032;-68
2021/12/28 03:18:41;;;;;;;65.93;30.33;;;;;;;;;;5096847;28;20523;-67
2021/12/28 03:21:08;;;;;;;66.78;31.60;;;;;;;;;;5097126;28;20028;-67
2021/12/28 03:23:35;;;;;;;55.50;26.13;;;;;;;;;;5095453;28;20056;-68
2021/12/28 03:26:01;;;;;;;54.47;26.27;;;;;;;;;;5097051;28;20064;-69
2021/12/28 03:28:30;;;;;;;57.83;27.20;;;;;;;;;;5095379;28;20034;-68
2021/12/28 03:30:57;;;;;;;62.75;28.50;;;;;;;;;;5096376;28;20032;-67
2021/12/28 03:33:24;;;;;;;54.80;28.23;;;;;;;;;;5096595;28;20024;-66
2021/12/28 03:35:51;;;;;;;53.20;26.58;;;;;;;;;;5096181;28;20036;-67
2021/12/28 03:38:18;;;;;;;58.53;27.98;;;;;;;;;;5096519;28;20065;-68
2021/12/28 03:40:44;;;;;;;61.60;29.30;;;;;;;;;;5095114;28;20384;-66
2021/12/28 03:43:11;;;;;;;65.47;30.20;;;;;;;;;;5096388;28;20024;-68
2021/12/28 03:45:37;;;;;;;56.65;27.58;;;;;;;;;;5096381;28;20071;-67
2021/12/28 03:48:06;;;;;;;55.50;26.63;;;;;;;;;;5096014;28;20424;-67
2021/12/28 03:50:33;;;;;;;59.88;29.15;;;;;;;;;;5095815;28;20377;-66
2021/12/28 03:52:59;;;;;;;57.92;28.77;;;;;;;;;;5096148;28;20476;-67
2021/12/28 03:55:26;;;;;;;57.63;29.60;;;;;;;;;;5096132;28;20152;-67
2021/12/28 03:57:52;;;;;;;57.60;27.17;;;;;;;;;;5094764;28;20119;-67
2021/12/28 04:00:21;;;;;;;53.75;26.15;;;;;;;;;;5094809;28;20064;-66
2021/12/28 04:02:47;;;;;;;54.03;25.67;;;;;;;;;;5094787;28;20428;-67
2021/12/28 04:05:14;;;;;;;51.45;24.88;;;;;;;;;;5096044;28;20044;-67
2021/12/28 04:07:40;;;;;;;54.30;26.48;;;;;;;;;;5095694;28;20442;-67
2021/12/28 04:10:09;;;;;;;57.55;27.67;;;;;;;;;;5095871;28;20026;-68
2021/12/28 04:12:36;;;;;;;57.25;27.83;;;;;;;;;;5094326;28;20081;-67
2021/12/28 04:15:02;;;;;;;61.85;28.95;;;;;;;;;;5095052;28;20020;-65
2021/12/28 04:17:31;;;;;;;64.45;28.27;;;;;;;;;;5095798;28;20024;-65
2021/12/28 04:19:57;;;;;;;58.60;27.88;;;;;;;;;;5095729;28;20031;-64
2021/12/28 04:22:24;;;;;;;62.75;29.40;;;;;;;;;;5095987;28;20107;-68
2021/12/28 04:24:50;;;;;;;57.45;28.45;;;;;;;;;;5094275;28;20038;-68
2021/12/28 04:27:16;;;;;;;66.10;29.00;;;;;;;;;;5095578;28;20111;-68
2021/12/28 04:29:42;;;;;;;67.78;30.25;;;;;;;;;;5095729;28;20063;-66
2021/12/28 04:32:09;;;;;;;61.05;31.02;;;;;;;;;;5095544;28;20115;-67
2021/12/28 04:34:35;;;;;;;70.18;32.88;;;;;;;;;;5094078;28;20544;-68
2021/12/28 04:37:01;;;;;;;60.75;30.00;;;;;;;;;;5095372;28;20059;-67
2021/12/28 04:39:28;;;;;;;70.65;30.95;;;;;;;;;;5095362;28;20082;-67
2021/12/28 04:41:54;;;;;;;68.18;31.83;;;;;;;;;;5095261;28;20358;-66
2021/12/28 04:44:24;;;;;;;67.18;30.70;;;;;;;;;;5093960;28;20028;-68
2021/12/28 04:46:52;;;;;;;67.78;29.55;;;;;;;;;;5093922;28;20028;-70
2021/12/28 04:49:20;;;;;;;65.93;28.45;;;;;;;;;;5095193;28;20024;-69
2021/12/28 04:51:47;;;;;;;67.80;30.27;;;;;;;;;;5095150;28;20777;-69
2021/12/28 04:54:13;;;;;;;99.82;44.85;;;;;;;;;;5093752;28;20028;-69
2021/12/28 04:56:40;;;;;;;88.80;38.97;;;;;;;;;;5093617;28;20250;-68
2021/12/28 04:59:06;;;;;;;160.88;71.78;;;;;;;;;;5094963;28;20025;-68
2021/12/28 05:01:33;;;;;;;173.70;78.35;;;;;;;;;;5094915;28;20106;-67
2021/12/28 05:04:00;;;;;;;52.67;25.52;;;;;;;;;;5093565;28;20028;-67
2021/12/28 05:06:26;;;;;;;47.30;24.10;;;;;;;;;;5094828;28;20024;-67
2021/12/28 05:08:53;;;;;;;59.38;27.83;;;;;;;;;;5094802;28;20113;-68
2021/12/28 05:11:19;;;;;;;60.15;27.35;;;;;;;;;;5094744;28;20028;-67
2021/12/28 05:13:45;;;;;;;61.75;27.23;;;;;;;;;;5093288;28;20056;-67
2021/12/28 05:16:15;;;;;;;58.67;27.27;;;;;;;;;;5093221;28;20057;-69
2021/12/28 05:18:41;;;;;;;60.55;27.48;;;;;;;;;;5094583;28;20034;-69
2021/12/28 05:21:07;;;;;;;60.35;27.13;;;;;;;;;;5094555;28;20056;-68
2021/12/28 05:23:34;;;;;;;60.08;27.75;;;;;;;;;;5094491;28;20028;-69
2021/12/28 05:26:00;;;;;;;60.65;27.20;;;;;;;;;;5093323;28;20115;-71
2021/12/28 05:28:29;;;;;;;72.00;31.25;;;;;;;;;;5092929;28;20031;-70
2021/12/28 05:30:55;;;;;;;71.75;34.55;;;;;;;;;;5094308;28;20417;-69
2021/12/28 05:33:22;;;;;;;68.88;29.10;;;;;;;;;;5094285;28;20024;-68
2021/12/28 05:35:48;;;;;;;91.22;39.78;;;;;;;;;;5092770;28;20035;-67
2021/12/28 05:38:14;;;;;;;62.40;28.55;;;;;;;;;;5094182;28;20028;-68
2021/12/28 05:40:40;;;;;;;60.70;27.52;;;;;;;;;;5094123;28;20074;-67
2021/12/28 05:43:06;;;;;;;61.40;27.58;;;;;;;;;;5092773;28;20024;-67
2021/12/28 05:45:37;;;;;;;64.28;27.17;;;;;;;;;;5094035;28;20134;-68
2021/12/28 05:48:03;;;;;;;59.13;27.45;;;;;;;;;;5092678;28;20024;-69
2021/12/28 05:50:29;;;;;;;61.30;29.45;;;;;;;;;;5093512;28;20048;-69
2021/12/28 05:52:56;;;;;;;59.72;28.00;;;;;;;;;;5094049;28;20028;-71
2021/12/28 05:55:22;;;;;;;51.35;25.80;;;;;;;;;;5093810;28;20051;-70
2021/12/28 06:08:19;;;;;;;61.90;28.27;;;;;;;;;;5131127;27;19919;-69
2021/12/28 06:10:45;;;;;;;66.78;28.45;;;;;;;;;;5110618;28;20031;-68
2021/12/28 06:13:11;;;;;;;60.45;28.23;;;;;;;;;;5109212;28;20380;-68
2021/12/28 06:15:37;;;;;;;62.63;28.35;;;;;;;;;;5110548;28;20059;-68
2021/12/28 06:18:04;;;;;;;73.95;31.65;;;;;;;;;;5109279;28;20073;-69
2021/12/28 06:20:30;;;;;;;72.20;33.53;;;;;;;;;;5110188;28;20016;-68
2021/12/28 06:22:56;;;;;;;66.55;32.00;;;;;;;;;;5109075;28;20460;-68
2021/12/28 06:25:22;;;;;;;80.30;37.92;;;;;;;;;;5110362;28;20020;-68
2021/12/28 06:27:49;;;;;;;68.18;32.15;;;;;;;;;;5110195;28;20043;-67
2021/12/28 06:30:15;;;;;;;69.90;32.25;;;;;;;;;;5110335;28;20550;-68
2021/12/28 06:32:41;;;;;;;72.75;31.83;;;;;;;;;;5110563;28;20020;-67
2021/12/28 06:35:08;;;;;;;63.42;29.40;;;;;;;;;;5110090;28;20517;-67
2021/12/28 06:37:35;;;;;;;73.45;29.17;;;;;;;;;;5110323;28;20054;-69
2021/12/28 06:40:01;;;;;;;61.90;30.55;;;;;;;;;;5108709;28;20048;-67
2021/12/28 06:42:27;;;;;;;60.05;29.20;;;;;;;;;;5110046;28;20028;-68
2021/12/28 06:44:53;;;;;;;74.35;32.67;;;;;;;;;;5109682;28;20028;-68
2021/12/28 06:47:20;;;;;;;86.28;39.17;;;;;;;;;;5109466;28;20389;-68
2021/12/28 06:49:47;;;;;;;85.85;37.78;;;;;;;;;;5109606;28;20524;-68
2021/12/28 06:52:13;;;;;;;72.95;31.33;;;;;;;;;;5109767;28;20514;-68
2021/12/28 06:54:39;;;;;;;78.07;36.13;;;;;;;;;;5109726;28;20031;-67
2021/12/28 06:57:07;;;;;;;98.22;41.08;;;;;;;;;;5108438;28;20031;-67
2021/12/28 06:59:35;;;;;;;106.45;47.22;;;;;;;;;;5109626;28;20019;-68
2021/12/28 07:02:01;;;;;;;85.78;39.30;;;;;;;;;;5109703;28;20470;-70
2021/12/28 07:04:27;;;;;;;85.25;38.00;;;;;;;;;;5109577;28;20085;-71
2021/12/28 07:06:53;;;;;;;85.28;38.25;;;;;;;;;;5109216;28;20055;-70
2021/12/28 07:09:19;;;;;;;76.78;35.30;;;;;;;;;;5096089;28;20028;-72
2021/12/28 07:11:45;;;;;;;71.80;32.22;;;;;;;;;;5095859;28;20020;-69
2021/12/28 07:14:12;;;;;;;65.57;31.42;;;;;;;;;;5094480;28;20027;-69
2021/12/28 07:16:38;;;;;;;63.17;28.00;;;;;;;;;;5094479;28;20028;-71
2021/12/28 07:19:09;;;;;;;78.28;34.25;;;;;;;;;;5095393;28;20050;-70
2021/12/28 07:21:36;;;;;;;69.90;29.83;;;;;;;;;;5095853;28;20056;-70
2021/12/28 07:24:02;;;;;;;64.72;28.65;;;;;;;;;;5095400;28;20095;-70
2021/12/28 07:26:28;;;;;;;70.85;30.63;;;;;;;;;;5095528;28;20497;-72
2021/12/28 07:28:55;;;;;;;70.00;30.48;;;;;;;;;;5095648;28;20027;-70
2021/12/28 07:31:21;;;;;;;65.78;28.23;;;;;;;;;;5095473;28;20069;-69
2021/12/28 07:33:47;;;;;;;62.30;29.30;;;;;;;;;;5094218;28;20115;-64
2021/12/28 07:36:14;;;;;;;68.50;32.58;;;;;;;;;;5095280;28;20055;-65
2021/12/28 07:38:40;;;;;;;72.15;33.17;;;;;;;;;;5094866;28;20421;-65
2021/12/28 07:41:06;;;;;;;63.47;30.92;;;;;;;;;;5075066;28;20056;-67
2021/12/28 07:43:32;;;;;;;73.78;32.22;;;;;;;;;;5075062;28;20032;-67
2021/12/28 07:45:58;;;;;;;71.93;31.27;;;;;;;;;;5074991;28;20038;-67
2021/12/28 07:48:25;;;;;;;64.00;30.60;;;;;;;;;;5075073;28;20090;-67
2021/12/28 07:50:51;;;;;;;75.90;30.05;;;;;;;;;;5074956;28;20033;-65
2021/12/28 07:53:17;;;;;;;70.30;33.08;;;;;;;;;;5073597;28;20056;-69
2021/12/28 07:55:43;;;;;;;70.07;34.22;;;;;;;;;;5074896;28;20021;-68
2021/12/28 07:58:10;;;;;;;73.45;35.03;;;;;;;;;;5074650;28;20162;-68
2021/12/28 08:00:36;;;;;;;79.90;34.35;;;;;;;;;;5074701;28;20153;-69
2021/12/28 08:03:04;;;;;;;71.57;34.03;;;;;;;;;;5073406;28;20035;-69
2021/12/28 08:05:31;;;;;;;70.10;33.35;;;;;;;;;;5074503;28;20029;-68
2021/12/28 08:07:57;;;;;;;78.50;36.10;;;;;;;;;;5074142;28;20049;-68
2021/12/28 08:10:24;;;;;;;85.03;37.90;;;;;;;;;;5073183;28;20021;-67
2021/12/28 08:12:52;;;;;;;82.53;37.40;;;;;;;;;;5074442;28;20052;-68
2021/12/28 08:15:19;;;;;;;81.45;39.47;;;;;;;;;;5073070;28;20032;-68
2021/12/28 08:17:45;;;;;;;78.05;33.30;;;;;;;;;;5074368;28;20060;-68
2021/12/28 08:20:12;;;;;;;77.57;36.00;;;;;;;;;;5073333;28;20021;-68
2021/12/28 08:22:38;;;;;;;90.45;38.38;;;;;;;;;;5074388;28;20089;-68
2021/12/28 08:25:06;;;;;;;102.63;47.30;;;;;;;;;;5074254;28;20381;-68
2021/12/28 08:27:32;;;;;;;96.47;43.25;;;;;;;;;;5072814;28;20032;-68
2021/12/28 08:29:58;;;;;;;99.68;44.85;;;;;;;;;;5074170;28;20104;-68
2021/12/28 08:32:24;;;;;;;86.30;40.35;;;;;;;;;;5073776;28;20033;-68
2021/12/28 08:34:50;;;;;;;87.55;41.20;;;;;;;;;;5074115;28;20086;-68
2021/12/28 08:37:17;;;;;;;83.85;38.80;;;;;;;;;;5072701;28;20039;-68
2021/12/28 08:39:43;;;;;;;93.03;39.30;;;;;;;;;;5072665;28;20021;-69
2021/12/28 08:42:09;;;;;;;80.38;35.33;;;;;;;;;;5074143;28;20052;-68
2021/12/28 08:44:36;;;;;;;89.80;38.78;;;;;;;;;;5073947;28;20032;-68
2021/12/28 08:47:02;;;;;;;79.38;36.25;;;;;;;;;;5071967;28;20144;-68
2021/12/28 08:49:28;;;;;;;76.97;33.00;;;;;;;;;;5073392;28;20043;-68
2021/12/28 08:51:55;;;;;;;82.78;37.15;;;;;;;;;;5073665;28;20024;-69
2021/12/28 08:54:21;;;;;;;91.55;39.45;;;;;;;;;;5078834;28;20062;-69
2021/12/28 08:56:50;;;;;;;88.97;39.88;;;;;;;;;;5093508;28;20088;-69
2021/12/28 08:59:17;;;;;;;79.60;36.53;;;;;;;;;;5091023;28;20036;-67
2021/12/28 09:01:43;;;;;;;84.57;38.15;;;;;;;;;;5093360;28;20024;-67
2021/12/28 09:04:09;;;;;;;77.75;36.50;;;;;;;;;;5092036;28;20028;-67
2021/12/28 09:06:36;;;;;;;88.43;41.65;;;;;;;;;;5092980;28;20067;-68
2021/12/28 09:09:03;;;;;;;90.65;40.65;;;;;;;;;;5091357;28;20040;-69
2021/12/28 09:11:29;;;;;;;83.63;39.08;;;;;;;;;;5093467;28;20486;-69
2021/12/28 09:13:55;;;;;;;88.88;39.67;;;;;;;;;;5093470;28;20132;-68
2021/12/28 09:16:23;;;;;;;83.75;38.72;;;;;;;;;;5091913;28;20392;-68
2021/12/28 09:18:49;;;;;;;72.65;34.88;;;;;;;;;;5093254;28;20031;-69
2021/12/28 09:21:16;;;;;;;87.18;39.08;;;;;;;;;;5093438;28;20028;-70
2021/12/28 09:23:42;;;;;;;82.53;37.03;;;;;;;;;;5093435;28;20107;-69
2021/12/28 09:26:08;;;;;;;77.32;37.30;;;;;;;;;;5093238;28;20027;-69
2021/12/28 09:28:34;;;;;;;79.38;35.17;;;;;;;;;;5092418;28;20516;-70
2021/12/28 09:31:01;;;;;;;78.43;37.22;;;;;;;;;;5093086;28;20036;-69
2021/12/28 09:33:27;;;;;;;79.38;38.03;;;;;;;;;;5105978;28;20104;-68
2021/12/28 09:35:53;;;;;;;87.70;42.08;;;;;;;;;;5113468;28;20023;-70
2021/12/28 09:38:20;;;;;;;90.72;40.85;;;;;;;;;;5113373;28;20024;-70
2021/12/28 09:40:47;;;;;;;83.03;40.33;;;;;;;;;;5113658;28;20023;-71
2021/12/28 09:43:14;;;;;;;75.95;37.33;;;;;;;;;;5112328;28;20030;-70
2021/12/28 09:45:41;;;;;;;93.25;41.28;;;;;;;;;;5113333;28;20034;-71
2021/12/28 09:48:09;;;;;;;94.65;38.95;;;;;;;;;;5113523;28;20028;-70
2021/12/28 09:50:35;;;;;;;77.68;36.25;;;;;;;;;;5112246;28;20035;-69
2021/12/28 09:53:02;;;;;;;65.25;31.63;;;;;;;;;;5112066;28;20027;-70
2021/12/28 09:55:29;;;;;;;63.25;30.60;;;;;;;;;;5113386;28;20035;-69
2021/12/28 09:57:57;;;;;;;72.90;31.48;;;;;;;;;;5113114;28;20452;-70
2021/12/28 10:00:24;;;;;;;76.90;33.78;;;;;;;;;;5113133;28;20708;-70
2021/12/28 10:02:51;;;;;;;79.63;36.85;;;;;;;;;;5113008;28;20549;-69
2021/12/28 10:05:20;;;;;;;85.07;40.67;;;;;;;;;;5112000;28;20034;-69
2021/12/28 10:07:48;;;;;;;88.65;41.25;;;;;;;;;;5111513;28;20093;-69
2021/12/28 10:10:15;;;;;;;83.82;39.88;;;;;;;;;;5112017;28;20115;-68
2021/12/28 10:12:49;;;;;;;96.95;42.03;;;;;;;;;;5113231;28;20028;-69
2021/12/28 10:15:17;;;;;;;97.63;43.13;;;;;;;;;;5111985;28;20024;-70
2021/12/28 10:17:45;;;;;;;85.78;40.15;;;;;;;;;;5111827;28;20118;-68
2021/12/28 10:20:15;;;;;;;92.50;40.83;;;;;;;;;;5111783;28;20055;-68
2021/12/28 10:22:47;;;;;;;92.03;41.03;;;;;;;;;;5111834;28;20096;-69
2021/12/28 10:25:19;;;;;;;107.75;49.63;;;;;;;;;;5113231;28;20026;-71
2021/12/28 10:27:50;;;;;;;102.95;48.67;;;;;;;;;;5113149;28;20139;-68
2021/12/28 10:30:21;;;;;;;99.38;45.97;;;;;;;;;;5111565;28;20052;-70
2021/12/28 10:32:49;;;;;;;93.25;43.50;;;;;;;;;;5112825;28;20372;-69
2021/12/28 10:35:18;;;;;;;108.05;48.10;;;;;;;;;;5111791;28;20028;-70
2021/12/28 10:37:52;;;;;;;101.90;47.20;;;;;;;;;;5111757;28;20059;-69
2021/12/28 10:40:41;;;;;;;130.20;59.90;;;;;;;;;;5112760;28;20027;-68
2021/12/28 10:43:07;;;;;;;127.03;58.55;;;;;;;;;;5108264;28;20047;-69
2021/12/28 10:45:38;;;;;;;94.32;44.60;;;;;;;;;;5116843;28;20040;-69
2021/12/28 10:48:08;;;;;;;81.75;40.72;;;;;;;;;;5116882;28;20040;-71
2021/12/28 10:50:37;;;;;;;96.15;43.47;;;;;;;;;;5115484;28;20043;-73
2021/12/28 10:53:25;;;;;;;92.72;42.78;;;;;;;;;;5115469;28;20075;-67
2021/12/28 10:55:53;;;;;;;87.88;41.05;;;;;;;;;;5116567;28;20156;-67
2021/12/28 10:58:21;;;;;;;97.88;44.20;;;;;;;;;;5116283;28;20380;-70
2021/12/28 11:00:47;;;;;;;101.85;46.38;;;;;;;;;;5116542;28;20030;-70
2021/12/28 11:03:17;;;;;;;104.15;47.40;;;;;;;;;;5116719;28;20073;-70
2021/12/28 11:05:44;;;;;;;111.25;49.72;;;;;;;;;;5113424;28;20020;-68
2021/12/28 11:08:10;;;;;;;95.72;46.42;;;;;;;;;;5095159;28;20047;-69
2021/12/28 11:10:41;;;;;;;99.60;46.90;;;;;;;;;;5096026;28;20040;-69
2021/12/28 11:13:08;;;;;;;91.90;42.35;;;;;;;;;;5094325;28;20059;-69
2021/12/28 11:15:37;;;;;;;95.60;45.47;;;;;;;;;;5094633;28;20481;-68
2021/12/28 11:18:36;;;;;;;57.42;22.77;;;;;;;;;;5094438;28;20143;-67
2021/12/28 11:21:10;;;;;;;124.55;59.60;;;;;;;;;;5056215;28;20143;-69
2021/12/28 11:23:36;;;;;;;93.95;48.50;;;;;;;;;;5073003;28;20067;-70
2021/12/28 11:26:20;;;;;;;100.80;49.40;;;;;;;;;;5072859;28;20033;-67
2021/12/28 11:28:58;;;;;;;89.05;45.25;;;;;;;;;;5072512;28;20473;-67
2021/12/28 11:31:33;;;;;;;91.60;44.88;;;;;;;;;;5072771;28;20032;-67
2021/12/28 11:34:02;;;;;;;88.75;41.22;;;;;;;;;;5056043;28;20028;-66
2021/12/28 11:36:33;;;;;;;76.68;38.00;;;;;;;;;;5072610;28;20088;-65
2021/12/28 11:39:00;;;;;;;84.03;41.63;;;;;;;;;;5072602;28;20060;-65
2021/12/28 11:41:28;;;;;;;97.25;44.42;;;;;;;;;;5072541;28;20366;-66
2021/12/28 11:43:54;;;;;;;99.63;43.55;;;;;;;;;;5072212;28;20108;-65
2021/12/28 11:46:21;;;;;;;94.47;45.67;;;;;;;;;;5072187;28;20066;-65
2021/12/28 11:48:47;;;;;;;81.72;41.03;;;;;;;;;;5072230;28;20021;-66
2021/12/28 11:51:14;;;;;;;88.13;42.45;;;;;;;;;;5055397;28;20028;-68
2021/12/28 11:53:42;;;;;;;86.15;43.85;;;;;;;;;;5055231;28;20552;-66
2021/12/28 11:56:10;;;;;;;83.45;40.13;;;;;;;;;;5079169;28;20044;-66
2021/12/28 11:58:53;;;;;;;98.40;46.67;;;;;;;;;;5093486;28;20124;-66
2021/12/28 12:01:37;;;;;;;136.82;68.38;;;;;;;;;;5093957;28;20209;-66
2021/12/28 12:04:04;;;;;;;93.95;45.05;;;;;;;;;;5093263;28;20027;-66
2021/12/28 12:07:17;;;;;;;88.95;42.10;;;;;;;;;;5092503;28;20063;-66
2021/12/28 12:09:49;;;;;;;84.55;41.28;;;;;;;;;;5072088;28;20035;-66
2021/12/28 12:12:16;;;;;;;79.93;38.35;;;;;;;;;;5072030;28;20038;-66
2021/12/28 12:14:58;;;;;;;87.30;42.10;;;;;;;;;;5071959;28;20063;-66
2021/12/28 12:17:27;;;;;;;187.63;94.07;;;;;;;;;;5072222;28;20036;-66
2021/12/28 12:19:53;;;;;;;172.82;84.82;;;;;;;;;;5071842;28;20378;-66
2021/12/28 12:22:31;;;;;;;119.70;54.38;;;;;;;;;;5071927;28;20028;-67
2021/12/28 12:24:57;;;;;;;94.70;44.20;;;;;;;;;;5072171;28;20108;-66
2021/12/28 12:27:42;;;;;;;179.55;88.68;;;;;;;;;;5071520;28;20124;-67
2021/12/28 12:30:17;;;;;;;118.03;55.17;;;;;;;;;;5071659;28;20496;-67
2021/12/28 12:33:02;;;;;;;111.60;49.95;;;;;;;;;;5071651;28;20032;-66
2021/12/28 12:35:46;;;;;;;106.97;49.53;;;;;;;;;;5071715;28;20028;-67
2021/12/28 12:38:13;;;;;;;94.40;46.33;;;;;;;;;;5071559;28;20036;-67
2021/12/28 12:40:53;;;;;;;79.18;38.22;;;;;;;;;;5085881;28;20043;-66
2021/12/28 12:43:20;;;;;;;67.95;35.20;;;;;;;;;;5094080;28;20024;-66
2021/12/28 12:45:52;;;;;;;69.63;35.35;;;;;;;;;;5094078;28;20024;-65
2021/12/28 12:48:31;;;;;;;72.47;34.95;;;;;;;;;;5094337;28;20115;-67
2021/12/28 12:51:16;;;;;;;68.85;31.98;;;;;;;;;;5093930;28;20023;-67
2021/12/28 12:53:44;;;;;;;73.10;35.90;;;;;;;;;;5092099;28;20024;-67
2021/12/28 12:56:18;;;;;;;80.60;39.58;;;;;;;;;;5093980;28;20028;-67
2021/12/28 12:58:47;;;;;;;91.00;41.67;;;;;;;;;;5093971;28;20381;-67
2021/12/28 13:01:26;;;;;;;79.85;39.88;;;;;;;;;;5092270;28;20028;-66
2021/12/28 13:03:53;;;;;;;69.25;34.17;;;;;;;;;;5093692;28;20020;-65
2021/12/28 13:06:48;;;;;;;66.72;34.35;;;;;;;;;;5091616;28;20165;-65
2021/12/28 13:09:16;;;;;;;89.00;40.72;;;;;;;;;;5056743;28;20032;-65
2021/12/28 13:11:43;;;;;;;76.50;36.88;;;;;;;;;;5092400;28;20110;-66
2021/12/28 13:14:10;;;;;;;70.35;36.88;;;;;;;;;;5093666;28;20086;-66
2021/12/28 13:16:36;;;;;;;68.55;34.72;;;;;;;;;;5093661;28;20107;-66
2021/12/28 13:19:09;;;;;;;72.78;34.53;;;;;;;;;;5093158;28;20024;-66
2021/12/28 13:21:36;;;;;;;75.20;37.75;;;;;;;;;;5093393;28;20024;-66
2021/12/28 13:24:10;;;;;;;78.47;36.20;;;;;;;;;;5095335;28;20107;-66
2021/12/28 13:26:43;;;;;;;81.43;37.55;;;;;;;;;;5097531;28;20085;-65
2021/12/28 13:29:09;;;;;;;79.88;39.15;;;;;;;;;;5093290;28;20111;-65
2021/12/28 13:31:36;;;;;;;84.93;41.55;;;;;;;;;;5093095;28;20027;-65
2021/12/28 13:34:02;;;;;;;87.40;42.53;;;;;;;;;;5091893;28;20028;-65
2021/12/28 13:36:29;;;;;;;89.63;43.63;;;;;;;;;;5091936;28;20032;-67
2021/12/28 13:39:08;;;;;;;78.20;37.65;;;;;;;;;;5091766;28;20032;-66
2021/12/28 13:41:35;;;;;;;74.45;36.35;;;;;;;;;;5091660;28;20123;-65
2021/12/28 13:44:05;;;;;;;73.03;37.08;;;;;;;;;;5092819;28;20098;-65
2021/12/28 13:46:32;;;;;;;74.75;37.65;;;;;;;;;;5091746;28;20038;-65
2021/12/28 13:49:02;;;;;;;73.57;35.38;;;;;;;;;;5092979;28;20093;-68
2021/12/28 13:51:30;;;;;;;93.80;43.25;;;;;;;;;;5091789;28;20135;-68
2021/12/28 13:53:59;;;;;;;82.97;39.95;;;;;;;;;;5091738;28;20032;-65
2021/12/28 13:56:34;;;;;;;91.68;43.40;;;;;;;;;;5093003;28;20115;-64
2021/12/28 13:59:01;;;;;;;92.45;41.28;;;;;;;;;;5092995;28;20020;-64
2021/12/28 14:01:29;;;;;;;88.10;39.50;;;;;;;;;;5092903;28;20027;-64
2021/12/28 14:03:58;;;;;;;87.40;41.45;;;;;;;;;;5091153;28;20089;-65
2021/12/28 14:06:25;;;;;;;100.15;46.30;;;;;;;;;;5092218;28;20035;-66
2021/12/28 14:08:51;;;;;;;76.18;38.10;;;;;;;;;;5092895;28;20491;-64
2021/12/28 14:11:35;;;;;;;79.38;37.47;;;;;;;;;;5092574;28;20052;-69
2021/12/28 14:14:01;;;;;;;65.28;31.35;;;;;;;;;;5091339;28;20115;-68
2021/12/28 14:16:27;;;;;;;58.10;29.17;;;;;;;;;;5093100;28;20032;-67
2021/12/28 14:18:55;;;;;;;63.97;28.92;;;;;;;;;;5095279;28;20031;-71
2021/12/28 14:21:27;;;;;;;65.47;32.65;;;;;;;;;;5096749;28;20056;-68
2021/12/28 14:23:53;;;;;;;;;;;;;;;;;;5096888;28;20028;-70
2021/12/28 14:26:20;;;;;;;70.90;33.42;;;;;;;;;;5096733;28;19912;-72
2021/12/28 14:29:01;;;;;;;83.22;36.83;;;;;;;;;;5095455;28;20024;-71
2021/12/28 14:31:38;;;;;;;76.25;33.88;;;;;;;;;;5095342;28;20028;-71
2021/12/28 14:34:05;;;;;;;78.15;33.92;;;;;;;;;;5096657;28;20024;-71
2021/12/28 14:36:36;;;;;;;90.10;37.30;;;;;;;;;;5095253;28;20365;-70